Time;durP1;ratioP1;P1;durP2;ratioP2;P2;SDS_P1;SDS_P2;PMS_P1;PMS_P2;Temp;Humidity;BMP_temperature;BMP_pressure;BME280_temperature;BME280_humidity;BME280_pressure;Samples;Min_cycle;Max_cycle;Signal;HPM_P1;HPM_P2
2022/05/22 00:00:15;;;;;;;3.15;1.20;;;20.80;58.30;;;;;;4476991;31;20414;-68
2022/05/22 00:02:42;;;;;;;3.90;1.38;;;20.90;58.30;;;;;;4476662;32;20089;-71
2022/05/22 00:05:15;;;;;;;2.33;1.20;;;20.80;58.30;;;;;;4475860;32;20500;-68
2022/05/22 00:07:41;;;;;;;5.75;1.75;;;20.80;58.30;;;;;;4475882;32;20487;-68
2022/05/22 00:10:08;;;;;;;1.80;0.90;;;20.90;58.40;;;;;;4476501;31;20130;-68
2022/05/22 00:12:34;;;;;;;4.22;1.58;;;20.80;58.30;;;;;;4476801;31;20433;-68
2022/05/22 00:15:00;;;;;;;4.35;1.33;;;20.90;58.40;;;;;;4477044;32;20093;-68
2022/05/22 00:17:27;;;;;;;2.92;1.10;;;20.80;58.30;;;;;;4476766;31;20131;-68
2022/05/22 00:19:53;;;;;;;3.88;1.30;;;20.80;58.40;;;;;;4476708;31;20490;-68
2022/05/22 00:22:19;;;;;;;3.83;1.55;;;20.80;58.40;;;;;;4476561;31;20133;-68
2022/05/22 00:24:45;;;;;;;3.65;1.40;;;20.80;58.30;;;;;;4476042;32;20065;-68
2022/05/22 00:27:11;;;;;;;3.30;1.10;;;20.80;58.40;;;;;;4476511;31;20228;-68
2022/05/22 00:29:38;;;;;;;3.67;1.13;;;20.80;58.40;;;;;;4476598;31;20077;-68
2022/05/22 00:32:06;;;;;;;4.38;1.40;;;20.80;58.40;;;;;;4476471;32;20223;-68
2022/05/22 00:34:32;;;;;;;3.15;1.17;;;20.80;58.30;;;;;;4476495;32;20100;-68
2022/05/22 00:36:58;;;;;;;4.00;1.42;;;20.80;58.30;;;;;;4476212;32;20499;-68
2022/05/22 00:39:24;;;;;;;3.28;1.05;;;20.80;58.30;;;;;;4476432;32;20118;-68
2022/05/22 00:41:53;;;;;;;4.85;1.27;;;20.70;58.20;;;;;;4476307;32;20088;-68
2022/05/22 00:44:19;;;;;;;3.72;1.10;;;20.70;58.20;;;;;;4476419;32;20109;-68
2022/05/22 00:46:45;;;;;;;2.42;1.10;;;20.70;58.20;;;;;;4476445;31;20073;-68
2022/05/22 00:49:29;;;;;;;2.67;0.93;;;20.70;58.20;;;;;;4476354;31;20057;-68
2022/05/22 00:51:58;;;;;;;5.32;1.38;;;20.70;58.20;;;;;;4476257;32;20166;-68
2022/05/22 00:54:33;;;;;;;3.00;1.23;;;20.70;58.20;;;;;;4476151;32;20273;-68
2022/05/22 00:57:07;;;;;;;3.22;1.05;;;20.70;58.30;;;;;;4476513;32;20239;-68
2022/05/22 00:59:39;;;;;;;2.95;1.35;;;20.70;58.30;;;;;;4476115;32;20077;-68
2022/05/22 01:02:05;;;;;;;4.07;1.38;;;20.70;58.30;;;;;;4476319;32;20167;-68
2022/05/22 01:04:34;;;;;;;3.00;1.17;;;20.70;58.30;;;;;;4476029;32;20085;-68
2022/05/22 01:07:04;;;;;;;3.28;1.23;;;20.70;58.30;;;;;;4476178;32;20429;-68
2022/05/22 01:09:29;;;;;;;2.92;1.00;;;20.60;58.30;;;;;;4474872;32;20529;-68
2022/05/22 01:12:01;;;;;;;3.05;1.17;;;20.60;58.20;;;;;;4475850;32;20078;-68
2022/05/22 01:14:28;;;;;;;3.08;1.10;;;20.60;58.30;;;;;;4476305;32;20073;-68
2022/05/22 01:16:54;;;;;;;1.92;1.00;;;20.60;59.20;;;;;;4476071;32;20395;-68
2022/05/22 01:19:24;;;;;;;3.47;1.10;;;20.60;58.30;;;;;;4476085;32;20097;-68
2022/05/22 01:21:52;;;;;;;2.00;0.80;;;20.60;58.30;;;;;;4476328;32;20166;-68
2022/05/22 01:24:18;;;;;;;3.15;1.10;;;20.60;58.30;;;;;;4476164;32;20070;-68
2022/05/22 01:26:45;;;;;;;3.95;1.25;;;20.60;58.30;;;;;;4474906;32;20568;-68
2022/05/22 01:29:11;;;;;;;2.65;0.93;;;20.60;58.30;;;;;;4475126;32;20062;-68
2022/05/22 01:31:39;;;;;;;2.30;1.13;;;20.60;58.30;;;;;;4475889;32;20134;-68
2022/05/22 01:34:05;;;;;;;4.50;1.02;;;20.60;58.30;;;;;;4476081;32;20070;-68
2022/05/22 01:36:31;;;;;;;3.35;0.85;;;20.60;58.30;;;;;;4478911;32;20491;-69
2022/05/22 01:38:57;;;;;;;1.90;1.00;;;20.60;58.30;;;;;;4479129;31;20070;-68
2022/05/22 01:41:23;;;;;;;3.65;1.17;;;20.50;58.30;;;;;;4478864;32;20464;-68
2022/05/22 01:43:49;;;;;;;3.55;1.23;;;20.60;58.40;;;;;;4479032;31;20089;-68
2022/05/22 01:46:15;;;;;;;3.22;1.05;;;20.60;58.40;;;;;;4478940;31;20155;-68
2022/05/22 01:48:40;;;;;;;3.28;1.05;;;20.60;58.40;;;;;;4478959;31;20065;-68
2022/05/22 01:51:06;;;;;;;2.55;1.02;;;20.60;58.40;;;;;;4479051;32;20142;-68
2022/05/22 01:53:32;;;;;;;3.53;1.00;;;20.50;58.30;;;;;;4478901;31;20081;-68
2022/05/22 01:55:59;;;;;;;3.00;1.05;;;20.60;58.40;;;;;;4478285;31;20065;-68
2022/05/22 01:58:25;;;;;;;1.75;0.90;;;20.50;58.30;;;;;;4478506;32;20077;-68
2022/05/22 02:00:51;;;;;;;2.80;1.10;;;20.50;58.30;;;;;;4478734;32;20066;-68
2022/05/22 02:03:18;;;;;;;1.80;0.88;;;20.50;58.30;;;;;;4478717;31;20092;-68
2022/05/22 02:05:44;;;;;;;3.53;0.93;;;20.50;58.40;;;;;;4478745;31;20415;-68
2022/05/22 02:08:22;;;;;;;1.92;0.70;;;20.50;58.30;;;;;;4478572;32;20250;-68
2022/05/22 02:10:51;;;;;;;2.85;0.90;;;20.50;58.30;;;;;;4478932;31;20066;-68
2022/05/22 02:13:20;;;;;;;1.75;0.88;;;20.50;58.40;;;;;;4478319;31;20085;-68
2022/05/22 02:15:48;;;;;;;3.50;0.90;;;20.50;58.40;;;;;;4478517;31;20206;-68
2022/05/22 02:18:14;;;;;;;2.58;1.10;;;20.50;58.30;;;;;;4478247;31;20099;-70
2022/05/22 02:20:41;;;;;;;1.60;0.70;;;20.50;58.40;;;;;;4478714;32;20077;-68
2022/05/22 02:23:07;;;;;;;2.53;0.85;;;20.50;58.40;;;;;;4478140;31;20065;-68
2022/05/22 02:25:36;;;;;;;2.13;0.88;;;20.40;58.40;;;;;;4478308;32;20469;-68
2022/05/22 02:28:04;;;;;;;1.75;0.80;;;20.50;58.50;;;;;;4478076;31;20081;-68
2022/05/22 02:30:34;;;;;;;2.53;1.00;;;20.40;58.40;;;;;;4478494;31;20166;-70
2022/05/22 02:33:00;;;;;;;3.33;1.02;;;20.40;58.40;;;;;;4478314;31;20065;-68
2022/05/22 02:35:27;;;;;;;2.70;1.00;;;20.40;58.40;;;;;;4478508;31;20093;-68
2022/05/22 02:37:55;;;;;;;2.05;0.85;;;20.40;58.40;;;;;;4478201;31;20158;-68
2022/05/22 02:40:24;;;;;;;2.97;1.38;;;20.40;58.40;;;;;;4478143;31;20163;-68
2022/05/22 02:42:51;;;;;;;2.42;0.82;;;20.40;58.40;;;;;;4478200;32;20254;-68
2022/05/22 02:45:20;;;;;;;2.42;1.00;;;20.40;58.40;;;;;;4478098;31;20510;-68
2022/05/22 02:47:47;;;;;;;1.77;0.90;;;20.40;58.40;;;;;;4477546;32;20518;-68
2022/05/22 02:50:15;;;;;;;2.10;0.80;;;20.40;58.40;;;;;;4478136;31;20069;-68
2022/05/22 02:52:41;;;;;;;1.83;0.80;;;20.40;58.40;;;;;;4478304;32;20081;-68
2022/05/22 02:55:08;;;;;;;3.97;1.13;;;20.40;58.40;;;;;;4477769;31;20084;-68
2022/05/22 02:57:35;;;;;;;1.90;0.80;;;20.30;58.40;;;;;;4477869;32;20077;-68
2022/05/22 03:00:04;;;;;;;2.10;0.90;;;20.40;58.50;;;;;;4477605;31;20092;-68
2022/05/22 03:02:30;;;;;;;1.55;0.70;;;20.40;58.40;;;;;;4477660;32;20191;-67
2022/05/22 03:04:56;;;;;;;1.52;0.95;;;20.30;58.30;;;;;;4478094;31;20203;-68
2022/05/22 03:07:22;;;;;;;1.58;0.95;;;20.30;58.40;;;;;;4477809;32;20070;-68
2022/05/22 03:09:48;;;;;;;2.22;0.82;;;20.30;58.40;;;;;;4477779;32;20159;-68
2022/05/22 03:12:19;;;;;;;1.67;0.77;;;20.30;58.30;;;;;;4477437;32;20081;-68
2022/05/22 03:14:48;;;;;;;1.35;0.80;;;20.30;58.30;;;;;;4477483;32;20065;-68
2022/05/22 03:17:14;;;;;;;1.85;0.80;;;20.30;58.30;;;;;;4477741;31;20286;-68
2022/05/22 03:19:40;;;;;;;2.30;0.93;;;20.30;58.40;;;;;;4477596;32;20111;-68
2022/05/22 03:22:08;;;;;;;1.75;0.77;;;20.30;58.30;;;;;;4477349;31;20081;-68
2022/05/22 03:24:35;;;;;;;2.10;0.85;;;20.30;58.30;;;;;;4477271;31;20195;-71
2022/05/22 03:27:02;;;;;;;1.30;0.70;;;20.30;58.30;;;;;;4477127;32;20104;-70
2022/05/22 03:29:28;;;;;;;2.38;0.90;;;20.30;58.30;;;;;;4477495;31;20092;-68
2022/05/22 03:31:54;;;;;;;1.55;0.77;;;20.30;58.40;;;;;;4477140;31;20069;-68
2022/05/22 03:34:20;;;;;;;1.40;0.80;;;20.30;58.30;;;;;;4477360;31;20187;-68
2022/05/22 03:36:45;;;;;;;1.83;0.90;;;20.20;58.30;;;;;;4477581;31;20081;-68
2022/05/22 03:39:11;;;;;;;1.38;0.57;;;20.20;58.30;;;;;;4477337;31;20085;-68
2022/05/22 03:41:38;;;;;;;2.47;0.80;;;20.20;58.30;;;;;;4477484;31;20062;-68
2022/05/22 03:44:07;;;;;;;1.42;0.65;;;20.20;58.30;;;;;;4477311;31;20165;-68
2022/05/22 03:46:34;;;;;;;2.17;0.60;;;20.20;58.30;;;;;;4477420;32;20142;-68
2022/05/22 03:49:00;;;;;;;2.53;0.77;;;20.20;58.30;;;;;;4477143;31;20239;-69
2022/05/22 03:51:26;;;;;;;1.60;0.68;;;20.20;58.30;;;;;;4477291;32;20073;-68
2022/05/22 03:53:53;;;;;;;1.50;0.60;;;20.20;58.30;;;;;;4475754;32;20096;-68
2022/05/22 03:56:19;;;;;;;2.53;0.82;;;20.20;58.30;;;;;;4475514;32;20073;-68
2022/05/22 03:58:46;;;;;;;1.85;0.70;;;20.20;58.30;;;;;;4476952;31;20073;-68
2022/05/22 04:01:12;;;;;;;1.90;1.00;;;20.20;58.20;;;;;;4476970;31;20081;-68
2022/05/22 04:03:38;;;;;;;1.42;0.52;;;20.20;58.20;;;;;;4476958;32;20078;-68
2022/05/22 04:06:06;;;;;;;1.33;0.43;;;20.20;58.20;;;;;;4477009;31;20384;-68
2022/05/22 04:08:33;;;;;;;2.10;0.75;;;20.20;58.30;;;;;;4476885;31;20081;-68
2022/05/22 04:11:09;;;;;;;2.28;0.80;;;20.20;58.20;;;;;;4476849;31;20066;-68
2022/05/22 04:13:35;;;;;;;1.27;0.65;;;20.10;58.10;;;;;;4476890;32;20087;-68
2022/05/22 04:16:02;;;;;;;1.50;0.73;;;20.10;58.20;;;;;;4476811;31;20077;-68
2022/05/22 04:18:27;;;;;;;1.60;0.70;;;20.10;58.20;;;;;;4476789;32;20079;-68
2022/05/22 04:20:53;;;;;;;2.90;0.90;;;20.10;58.20;;;;;;4476808;31;20069;-68
2022/05/22 04:26:05;;;;;;;1.60;0.70;;;20.10;58.10;;;;;;4476873;32;20065;-68
2022/05/22 04:28:32;;;;;;;1.80;0.70;;;20.10;58.20;;;;;;4476361;31;20111;-68
2022/05/22 04:30:57;;;;;;;1.38;0.60;;;20.10;58.10;;;;;;4476292;31;20095;-68
2022/05/22 04:33:25;;;;;;;1.33;0.60;;;20.10;58.10;;;;;;4476928;32;20207;-68
2022/05/22 04:35:51;;;;;;;2.67;0.70;;;20.10;58.10;;;;;;4476686;31;20093;-68
2022/05/22 04:38:17;;;;;;;1.42;0.40;;;20.10;58.10;;;;;;4476683;31;20139;-68
2022/05/22 04:40:56;;;;;;;1.73;0.73;;;20.10;58.10;;;;;;4476570;31;20483;-68
2022/05/22 04:48:32;;;;;;;1.35;0.70;;;20.10;58.10;;;;;;4440183;32;20255;-71
2022/05/22 04:50:58;;;;;;;1.48;0.50;;;20.10;58.10;;;;;;4444910;32;20129;-69
2022/05/22 04:53:25;;;;;;;1.13;0.50;;;20.10;58.10;;;;;;4445253;32;20054;-68
2022/05/22 04:55:51;;;;;;;1.63;0.80;;;20.10;58.10;;;;;;4445798;32;20094;-68
2022/05/22 04:58:18;;;;;;;0.80;0.47;;;20.10;58.10;;;;;;4445634;32;20232;-68
2022/05/22 05:00:44;;;;;;;1.30;0.70;;;20.10;58.10;;;;;;4445156;32;20168;-68
2022/05/22 05:03:11;;;;;;;0.75;0.45;;;20.00;58.10;;;;;;4444971;32;20169;-68
2022/05/22 05:05:36;;;;;;;1.27;0.63;;;20.10;58.10;;;;;;4456968;32;20482;-69
2022/05/22 05:08:03;;;;;;;1.65;0.90;;;20.10;58.20;;;;;;4445109;32;20581;-68
2022/05/22 05:10:28;;;;;;;1.90;0.65;;;20.10;58.10;;;;;;4448776;32;20127;-68
2022/05/22 05:12:55;;;;;;;1.65;0.70;;;20.10;58.10;;;;;;4449884;32;20196;-68
2022/05/22 05:15:23;;;;;;;1.15;0.52;;;20.10;58.10;;;;;;4450259;32;20558;-68
2022/05/22 05:17:49;;;;;;;2.05;0.70;;;20.10;58.10;;;;;;4450041;32;20267;-68
2022/05/22 05:20:18;;;;;;;1.65;0.63;;;20.10;58.10;;;;;;4450183;32;20200;-68
2022/05/22 05:22:45;;;;;;;1.70;0.55;;;20.10;58.10;;;;;;4449967;32;20077;-68
2022/05/22 05:25:13;;;;;;;1.70;0.68;;;20.10;58.10;;;;;;4450135;32;20116;-69
2022/05/22 05:27:39;;;;;;;1.15;0.50;;;20.10;58.10;;;;;;4450389;32;20086;-68
2022/05/22 05:30:06;;;;;;;1.83;0.65;;;20.10;58.00;;;;;;4449816;32;20069;-68
2022/05/22 05:32:32;;;;;;;1.38;0.68;;;20.10;58.10;;;;;;4450258;32;20180;-69
2022/05/22 05:35:00;;;;;;;0.75;0.50;;;20.10;58.00;;;;;;4449768;32;20515;-69
2022/05/22 05:37:26;;;;;;;1.67;0.60;;;20.10;58.00;;;;;;4450048;32;20129;-69
2022/05/22 05:39:52;;;;;;;0.82;0.47;;;20.10;58.00;;;;;;4449737;32;20582;-69
2022/05/22 05:42:18;;;;;;;1.55;0.70;;;20.10;57.90;;;;;;4449962;32;20074;-69
2022/05/22 05:44:45;;;;;;;1.58;0.70;;;20.10;57.90;;;;;;4449995;32;20070;-69
2022/05/22 05:47:11;;;;;;;1.33;0.52;;;20.10;57.90;;;;;;4449528;32;20136;-69
2022/05/22 05:49:38;;;;;;;1.38;0.63;;;20.10;57.90;;;;;;4450007;32;20110;-70
2022/05/22 05:52:05;;;;;;;1.77;0.60;;;20.10;57.90;;;;;;4449900;32;20062;-69
2022/05/22 05:54:31;;;;;;;1.80;0.55;;;20.10;57.90;;;;;;4450148;32;20207;-69
2022/05/22 05:56:58;;;;;;;1.45;0.57;;;20.10;57.90;;;;;;4449917;32;20098;-69
2022/05/22 05:59:25;;;;;;;1.23;0.60;;;20.20;58.00;;;;;;4450147;32;20070;-70
2022/05/22 06:01:51;;;;;;;1.40;0.70;;;20.20;57.90;;;;;;4449935;32;20129;-70
2022/05/22 06:04:16;;;;;;;1.05;0.68;;;20.20;58.00;;;;;;4449909;32;20166;-69
2022/05/22 06:06:42;;;;;;;1.27;0.73;;;20.20;58.00;;;;;;4450209;32;20074;-70
2022/05/22 06:09:08;;;;;;;1.15;0.68;;;20.20;58.00;;;;;;4449837;32;20082;-69
2022/05/22 06:11:34;;;;;;;0.63;0.30;;;20.20;58.00;;;;;;4449681;32;20402;-70
2022/05/22 06:14:00;;;;;;;0.90;0.45;;;20.20;58.00;;;;;;4449721;32;20070;-69
2022/05/22 06:16:26;;;;;;;1.20;0.60;;;20.20;57.90;;;;;;4450093;32;20204;-70
2022/05/22 06:18:52;;;;;;;0.95;0.50;;;20.20;57.90;;;;;;4449723;32;20070;-70
2022/05/22 06:21:21;;;;;;;2.47;0.60;;;20.20;57.90;;;;;;4448242;32;20093;-70
2022/05/22 06:23:47;;;;;;;2.22;0.73;;;20.30;57.90;;;;;;4447531;32;20295;-69
2022/05/22 06:26:17;;;;;;;1.25;0.60;;;20.30;58.00;;;;;;4447012;32;20215;-70
2022/05/22 06:28:44;;;;;;;0.93;0.55;;;20.30;57.90;;;;;;4447227;32;20078;-69
2022/05/22 06:31:11;;;;;;;1.10;0.57;;;20.30;57.90;;;;;;4446877;32;20568;-70
2022/05/22 06:33:38;;;;;;;0.95;0.40;;;20.30;57.90;;;;;;4447238;32;20085;-70
2022/05/22 06:36:15;;;;;;;1.27;0.60;;;20.30;57.90;;;;;;4447440;32;20113;-70
2022/05/22 06:41:27;;;;;;;1.83;0.82;;;20.40;58.00;;;;;;4447507;32;20074;-69
2022/05/22 06:43:53;;;;;;;2.08;0.55;;;20.40;58.00;;;;;;4446964;32;20082;-69
2022/05/22 06:46:26;;;;;;;0.63;0.30;;;20.40;57.90;;;;;;4447073;32;20168;-69
2022/05/22 06:48:51;;;;;;;1.35;0.50;;;20.40;57.90;;;;;;4447127;32;20518;-69
2022/05/22 06:51:17;;;;;;;0.70;0.30;;;20.40;57.90;;;;;;4446609;32;20070;-70
2022/05/22 06:53:43;;;;;;;1.02;0.47;;;20.40;57.90;;;;;;4446954;32;20066;-72
2022/05/22 06:56:09;;;;;;;0.82;0.57;;;20.50;57.90;;;;;;4446874;32;20211;-72
2022/05/22 06:58:36;;;;;;;0.70;0.40;;;20.50;57.90;;;;;;4447160;32;20195;-73
2022/05/22 07:01:02;;;;;;;3.60;0.63;;;20.60;58.00;;;;;;4446815;32;20106;-72
2022/05/22 07:03:28;;;;;;;3.15;1.05;;;20.60;57.80;;;;;;4446996;32;20145;-72
2022/05/22 07:05:54;;;;;;;3.50;0.90;;;20.70;57.80;;;;;;4446791;32;20192;-74
2022/05/22 07:08:20;;;;;;;3.35;0.90;;;20.70;57.60;;;;;;4446669;32;20082;-73
2022/05/22 07:13:29;;;;;;;7.88;1.13;;;20.80;57.90;;;;;;4447137;32;20216;-73
2022/05/22 07:16:01;;;;;;;4.00;1.13;;;20.90;57.90;;;;;;4446538;32;20584;-73
2022/05/22 07:18:26;;;;;;;3.65;1.30;;;20.90;57.90;;;;;;4446587;32;20093;-73
2022/05/22 07:20:52;;;;;;;4.18;1.20;;;20.90;57.80;;;;;;4446695;32;20152;-73
2022/05/22 07:23:18;;;;;;;5.60;1.23;;;20.90;57.80;;;;;;4447935;32;20129;-73
2022/05/22 07:25:44;;;;;;;4.70;1.20;;;21.00;57.70;;;;;;4447972;32;20066;-74
2022/05/22 07:28:11;;;;;;;6.15;1.25;;;21.00;57.60;;;;;;4448187;32;20153;-73
2022/05/22 07:30:36;;;;;;;3.55;0.95;;;21.10;57.60;;;;;;4447963;32;20286;-74
2022/05/22 07:33:02;;;;;;;4.80;1.27;;;21.10;57.60;;;;;;4446699;32;20062;-74
2022/05/22 07:35:28;;;;;;;7.15;1.60;;;21.10;57.60;;;;;;4446297;32;20479;-74
2022/05/22 07:37:54;;;;;;;5.63;1.33;;;21.10;57.40;;;;;;4446251;32;20074;-74
2022/05/22 07:40:20;;;;;;;8.05;1.52;;;21.10;56.90;;;;;;4446286;32;20192;-75
2022/05/22 07:42:46;;;;;;;6.57;1.65;;;21.20;56.60;;;;;;4446070;32;20538;-74
2022/05/22 07:45:15;;;;;;;10.10;2.08;;;21.10;56.10;;;;;;4445076;32;20093;-74
2022/05/22 07:47:41;;;;;;;6.70;1.83;;;21.20;55.70;;;;;;4445802;32;20105;-74
2022/05/22 07:50:17;;;;;;;9.25;2.08;;;21.20;55.60;;;;;;4446104;32;20078;-75
2022/05/22 07:52:48;;;;;;;6.95;1.92;;;21.20;55.40;;;;;;4446289;32;20164;-74
2022/05/22 07:55:15;;;;;;;9.85;2.13;;;21.20;55.30;;;;;;4445907;32;20219;-75
2022/05/22 07:57:42;;;;;;;8.77;1.83;;;21.20;55.30;;;;;;4445878;32;20122;-74
2022/05/22 08:00:10;;;;;;;12.55;2.20;;;21.20;55.50;;;;;;4445817;32;20200;-75
2022/05/22 08:02:36;;;;;;;7.50;1.50;;;21.30;55.40;;;;;;4445804;32;20220;-75
2022/05/22 08:05:02;;;;;;;8.77;1.88;;;21.30;55.30;;;;;;4445776;32;20126;-75
2022/05/22 08:07:28;;;;;;;7.00;1.85;;;21.30;55.30;;;;;;4444720;32;20087;-75
2022/05/22 08:09:53;;;;;;;7.10;1.60;;;21.30;55.30;;;;;;4445785;32;20400;-75
2022/05/22 08:12:19;;;;;;;7.28;1.92;;;21.30;55.30;;;;;;4444386;32;20070;-75
2022/05/22 08:14:45;;;;;;;10.25;1.80;;;21.30;55.30;;;;;;4445471;32;20181;-75
2022/05/22 08:17:11;;;;;;;11.63;2.33;;;21.30;55.10;;;;;;4445485;32;20109;-75
2022/05/22 08:19:37;;;;;;;6.35;1.75;;;21.40;54.90;;;;;;4444125;32;20090;-75
2022/05/22 08:22:04;;;;;;;5.95;1.73;;;21.40;54.90;;;;;;4457041;32;20124;-75
2022/05/22 08:24:29;;;;;;;6.30;1.98;;;21.40;54.90;;;;;;4445279;32;20094;-75
2022/05/22 08:26:55;;;;;;;6.18;1.70;;;21.40;54.80;;;;;;4444129;32;20125;-74
2022/05/22 08:29:22;;;;;;;8.60;2.08;;;21.40;54.90;;;;;;4445693;32;20100;-75
2022/05/22 08:31:48;;;;;;;9.35;2.20;;;21.40;54.50;;;;;;4445409;32;20415;-75
2022/05/22 08:34:14;;;;;;;7.22;1.90;;;21.40;54.00;;;;;;4445394;32;20622;-75
2022/05/22 08:36:40;;;;;;;5.72;1.30;;;21.50;54.00;;;;;;4445439;32;20538;-76
2022/05/22 08:39:06;;;;;;;8.73;1.50;;;21.50;54.10;;;;;;4445199;32;20228;-76
2022/05/22 08:41:50;;;;;;;6.68;1.33;;;21.50;54.00;;;;;;4445618;32;20070;-76
2022/05/22 08:44:31;;;;;;;8.55;2.05;;;21.50;54.00;;;;;;4445012;32;20078;-76
2022/05/22 08:47:15;;;;;;;8.98;1.75;;;21.50;53.90;;;;;;4445205;32;20132;-77
2022/05/22 08:49:41;;;;;;;;;;;21.60;53.70;;;;;;4445984;32;20132;-77
2022/05/22 08:52:22;;;;;;;9.05;2.13;;;21.60;53.60;;;;;;4456780;32;19966;-77
2022/05/22 08:54:57;;;;;;;6.55;1.50;;;21.60;53.60;;;;;;4445403;32;20554;-77
2022/05/22 09:00:23;;;;;;;8.85;1.60;;;21.60;53.30;;;;;;4445376;32;20291;-76
2022/05/22 09:02:59;;;;;;;4.35;1.23;;;21.70;53.50;;;;;;4445148;32;20093;-77
2022/05/22 09:05:28;;;;;;;6.20;1.77;;;21.70;53.20;;;;;;4445162;32;20093;-78
2022/05/22 09:08:05;;;;;;;7.78;1.50;;;21.70;53.00;;;;;;4445100;32;20062;-77
2022/05/22 09:10:58;;;;;;;8.90;1.85;;;21.70;52.40;;;;;;4444980;32;20300;-77
2022/05/22 09:14:02;;;;;;;6.68;1.67;;;21.70;52.30;;;;;;4445057;32;20191;-77
2022/05/22 09:16:33;;;;;;;9.15;1.80;;;21.70;52.50;;;;;;4445377;32;20093;-78
2022/05/22 09:19:16;;;;;;;5.50;1.40;;;21.80;52.30;;;;;;4445034;32;20415;-77
2022/05/22 09:22:07;;;;;;;6.47;1.60;;;21.80;52.10;;;;;;4445121;32;20187;-77
2022/05/22 09:24:48;;;;;;;8.38;1.63;;;21.80;52.30;;;;;;4445054;32;20073;-77
2022/05/22 09:27:20;;;;;;;8.32;1.77;;;21.80;52.10;;;;;;4444919;32;20108;-77
2022/05/22 09:29:50;;;;;;;5.88;1.70;;;21.80;52.10;;;;;;4445591;32;20207;-77
2022/05/22 09:32:56;;;;;;;4.50;1.10;;;21.80;52.20;;;;;;4444848;32;20078;-77
2022/05/22 09:35:47;;;;;;;5.80;1.38;;;21.70;52.30;;;;;;4429020;32;20106;-77
2022/05/22 09:38:39;;;;;;;7.38;1.58;;;21.70;52.30;;;;;;4444662;32;20511;-77
2022/05/22 09:41:16;;;;;;;5.10;1.35;;;21.70;52.30;;;;;;4440569;32;20291;-77
2022/05/22 09:44:08;;;;;;;6.43;1.67;;;21.80;51.80;;;;;;4444711;32;20086;-77
2022/05/22 09:46:43;;;;;;;3.78;0.95;;;21.70;52.00;;;;;;4444674;32;20148;-76
2022/05/22 09:49:28;;;;;;;4.80;1.30;;;21.70;52.10;;;;;;4445145;32;20093;-77
2022/05/22 09:52:26;;;;;;;4.35;1.00;;;21.70;52.00;;;;;;4444739;32;20216;-76
2022/05/22 09:55:20;;;;;;;4.22;1.13;;;21.70;52.20;;;;;;4443042;32;20093;-77
2022/05/22 09:58:03;;;;;;;6.93;1.10;;;21.70;51.80;;;;;;4447399;32;20098;-77
2022/05/22 10:00:51;;;;;;;5.07;1.65;;;21.70;52.00;;;;;;4447471;32;20074;-77
2022/05/22 10:03:30;;;;;;;4.18;1.15;;;21.70;52.10;;;;;;4447118;32;20529;-77
2022/05/22 10:06:01;;;;;;;4.93;0.98;;;21.70;52.10;;;;;;4447624;32;20306;-77
2022/05/22 10:08:42;;;;;;;3.92;1.10;;;21.70;52.10;;;;;;4447546;32;20411;-77
2022/05/22 10:11:40;;;;;;;8.63;1.48;;;21.70;52.10;;;;;;4459379;32;20066;-77
2022/05/22 10:14:46;;;;;;;3.40;0.95;;;21.70;51.90;;;;;;4446054;32;20094;-77
2022/05/22 10:17:55;;;;;;;4.25;0.90;;;21.70;52.00;;;;;;4447721;32;20097;-77
2022/05/22 10:20:45;;;;;;;5.70;1.15;;;21.70;51.80;;;;;;4414694;32;20099;-77
2022/05/22 10:23:50;;;;;;;5.82;1.00;;;21.70;51.90;;;;;;4446114;32;20129;-77
2022/05/22 10:26:22;;;;;;;4.72;1.25;;;21.70;51.70;;;;;;4441259;32;20086;-77
2022/05/22 10:29:37;;;;;;;4.10;1.20;;;21.70;51.90;;;;;;4447342;32;20078;-77
2022/05/22 10:32:13;;;;;;;4.85;1.13;;;21.70;51.90;;;;;;4446970;32;20090;-77
2022/05/22 10:35:01;;;;;;;5.43;1.50;;;21.70;52.70;;;;;;4447372;32;20070;-77
2022/05/22 10:37:51;;;;;;;5.20;0.95;;;21.70;51.30;;;;;;4447224;32;20093;-78
2022/05/22 10:40:21;;;;;;;3.85;0.95;;;21.70;51.40;;;;;;4446290;32;20163;-79
2022/05/22 10:42:54;;;;;;;3.33;0.80;;;21.70;51.50;;;;;;4447440;32;20423;-77
2022/05/22 10:45:35;;;;;;;4.95;1.15;;;21.70;51.40;;;;;;4447298;32;20168;-79
2022/05/22 10:48:24;;;;;;;5.22;0.88;;;21.70;51.40;;;;;;4447019;32;20086;-78
2022/05/22 10:51:11;;;;;;;4.97;1.23;;;21.70;51.10;;;;;;4458960;32;20082;-80
2022/05/22 10:53:50;;;;;;;3.80;1.13;;;21.70;51.20;;;;;;4447271;32;20090;-77
2022/05/22 10:56:34;;;;;;;5.57;1.20;;;21.70;52.00;;;;;;4446847;32;20097;-77
2022/05/22 10:59:17;;;;;;;7.50;1.05;;;21.70;51.30;;;;;;4447036;32;20090;-77
2022/05/22 11:01:43;;;;;;;3.40;1.05;;;21.70;51.30;;;;;;4447188;32;20074;-78
2022/05/22 11:04:16;;;;;;;6.30;1.40;;;21.70;52.20;;;;;;4458653;32;20081;-77
2022/05/22 11:07:00;;;;;;;4.65;1.27;;;21.70;51.00;;;;;;4446801;32;20141;-77
2022/05/22 11:09:27;;;;;;;;;;;21.70;50.90;;;;;;4447561;32;20082;-77
2022/05/22 11:12:08;;;;;;;4.40;0.90;;;21.70;51.30;;;;;;4446707;32;20310;-77
2022/05/22 11:14:35;;;;;;;6.28;1.30;;;21.70;51.10;;;;;;4446709;32;20093;-77
2022/05/22 11:17:13;;;;;;;4.93;1.15;;;21.70;51.00;;;;;;4446372;32;20188;-76
2022/05/22 11:19:41;;;;;;;5.25;1.25;;;21.70;50.40;;;;;;4446581;32;20403;-77
2022/05/22 11:22:27;;;;;;;6.22;1.30;;;21.70;50.30;;;;;;4446597;32;20471;-78
2022/05/22 11:25:25;;;;;;;5.22;1.27;;;21.70;49.70;;;;;;4446596;32;20479;-78
2022/05/22 11:28:28;;;;;;;5.45;1.10;;;21.80;49.80;;;;;;4446446;32;20077;-76
2022/05/22 11:31:00;;;;;;;3.73;1.17;;;21.80;49.80;;;;;;4446333;32;20066;-79
2022/05/22 11:33:46;;;;;;;6.28;1.30;;;21.80;49.80;;;;;;4458300;32;20480;-77
2022/05/22 11:36:21;;;;;;;5.32;1.65;;;21.80;49.80;;;;;;4446198;32;20096;-77
2022/05/22 11:39:04;;;;;;;6.30;1.30;;;21.80;49.80;;;;;;4446291;32;20404;-77
2022/05/22 11:41:41;;;;;;;2.78;1.00;;;21.80;49.40;;;;;;4446350;32;20070;-78
2022/05/22 11:44:25;;;;;;;3.00;0.73;;;21.80;49.50;;;;;;4446537;32;20085;-78
2022/05/22 11:47:31;;;;;;;4.75;1.05;;;21.90;49.50;;;;;;4446150;32;20086;-77
2022/05/22 11:50:28;;;;;;;4.18;1.20;;;21.90;49.10;;;;;;4436197;32;20143;-77
2022/05/22 11:53:22;;;;;;;4.88;0.85;;;21.90;49.40;;;;;;4446146;32;20090;-78
2022/05/22 11:56:25;;;;;;;4.22;0.98;;;21.90;49.20;;;;;;4457897;32;20107;-74
2022/05/22 11:59:10;;;;;;;4.43;1.00;;;21.90;48.90;;;;;;4445924;32;20167;-74
2022/05/22 12:01:45;;;;;;;4.70;1.30;;;21.90;48.90;;;;;;4446199;32;20086;-74
2022/05/22 12:04:41;;;;;;;6.70;1.52;;;21.90;48.50;;;;;;4445909;32;20640;-74
2022/05/22 12:07:16;;;;;;;4.65;0.90;;;21.90;48.00;;;;;;4445739;32;20168;-74
2022/05/22 12:09:59;;;;;;;5.20;1.08;;;22.00;47.90;;;;;;4445583;32;20235;-75
2022/05/22 12:12:40;;;;;;;2.47;0.80;;;22.00;47.80;;;;;;4444877;32;20083;-74
2022/05/22 12:15:18;;;;;;;4.20;1.10;;;22.00;47.70;;;;;;4445766;32;20070;-74
2022/05/22 12:18:24;;;;;;;4.53;1.08;;;22.00;47.60;;;;;;4445723;32;20097;-74
2022/05/22 12:21:13;;;;;;;4.93;1.10;;;22.00;47.50;;;;;;4436489;32;20078;-75
2022/05/22 12:24:05;;;;;;;4.97;1.15;;;22.10;46.60;;;;;;4430191;32;20070;-74
2022/05/22 12:26:31;;;;;;;4.53;1.23;;;22.10;46.60;;;;;;4445249;32;20096;-74
2022/05/22 12:29:12;;;;;;;3.60;1.00;;;22.10;46.80;;;;;;4444526;32;20212;-74
2022/05/22 12:31:42;;;;;;;3.60;0.93;;;22.10;46.80;;;;;;4445749;32;20120;-74
2022/05/22 12:34:26;;;;;;;8.30;1.17;;;22.10;46.90;;;;;;4445412;32;20160;-74
2022/05/22 12:36:54;;;;;;;3.80;0.90;;;22.10;47.00;;;;;;4445701;32;20227;-74
2022/05/22 12:39:24;;;;;;;6.05;1.35;;;22.10;47.10;;;;;;4445354;32;20685;-74
2022/05/22 12:42:10;;;;;;;2.95;0.82;;;22.10;47.20;;;;;;4445092;32;20080;-75
2022/05/22 12:44:36;;;;;;;3.40;0.80;;;22.10;47.30;;;;;;4445380;32;20074;-74
2022/05/22 12:47:12;;;;;;;5.93;1.08;;;22.10;47.30;;;;;;4444889;32;20098;-74
2022/05/22 12:49:38;;;;;;;3.83;0.98;;;22.10;47.40;;;;;;4445272;32;20407;-73
2022/05/22 12:52:29;;;;;;;4.32;1.17;;;22.10;47.50;;;;;;4445153;32;20609;-74
2022/05/22 12:55:09;;;;;;;4.22;1.00;;;22.10;47.50;;;;;;4441607;32;20096;-74
2022/05/22 12:57:36;;;;;;;4.00;0.80;;;22.10;47.50;;;;;;4445029;32;20078;-74
2022/05/22 13:00:33;;;;;;;4.47;1.20;;;22.10;47.60;;;;;;4444893;32;20641;-74
2022/05/22 13:03:14;;;;;;;3.40;0.75;;;22.10;47.70;;;;;;4445501;32;20275;-74
2022/05/22 13:05:42;;;;;;;3.70;1.05;;;22.10;47.80;;;;;;4445261;32;20078;-74
2022/05/22 13:08:37;;;;;;;6.30;1.10;;;22.10;47.70;;;;;;4444809;32;20082;-74
2022/05/22 13:11:12;;;;;;;3.92;1.30;;;22.10;47.60;;;;;;4444098;32;20227;-74
2022/05/22 13:13:50;;;;;;;4.32;1.10;;;22.10;47.70;;;;;;4445374;32;20535;-74
2022/05/22 13:16:34;;;;;;;4.78;1.05;;;22.10;47.70;;;;;;4445067;32;20078;-74
2022/05/22 13:19:00;;;;;;;6.38;1.00;;;22.10;47.70;;;;;;4444824;32;20136;-74
2022/05/22 13:21:39;;;;;;;2.80;0.80;;;22.00;47.80;;;;;;4444838;32;20396;-74
2022/05/22 13:24:22;;;;;;;5.68;1.30;;;22.00;47.90;;;;;;4445166;32;20110;-74
2022/05/22 13:27:05;;;;;;;4.55;1.10;;;22.00;47.80;;;;;;4445043;32;20373;-74
2022/05/22 13:29:49;;;;;;;5.13;1.17;;;22.00;47.90;;;;;;4444668;32;20089;-74